Time;durP1;ratioP1;P1;durP2;ratioP2;P2;SDS_P1;SDS_P2;PMS_P1;PMS_P2;Temp;Humidity;BMP_temperature;BMP_pressure;BME280_temperature;BME280_humidity;BME280_pressure;Samples;Min_cycle;Max_cycle;Signal;HPM_P1;HPM_P2
2021/12/10 00:02:13;;;;;;;4.80;2.40;;;2.00;99.90;;;;;;4932332;29;20593;-71
2021/12/10 00:04:42;;;;;;;3.67;3.10;;;2.00;99.90;;;;;;4932085;29;20437;-71
2021/12/10 00:07:16;;;;;;;6.90;3.43;;;2.00;99.90;;;;;;4925159;29;20483;-71
2021/12/10 00:09:48;;;;;;;11.13;2.63;;;2.00;99.90;;;;;;4934158;29;20442;-71
2021/12/10 00:12:20;;;;;;;5.43;3.33;;;2.00;99.90;;;;;;4934304;29;20457;-71
2021/12/10 00:14:46;;;;;;;5.10;2.63;;;2.00;99.90;;;;;;4934022;29;20467;-71
2021/12/10 00:17:14;;;;;;;6.80;3.37;;;1.90;99.90;;;;;;4933829;29;20804;-71
2021/12/10 00:19:46;;;;;;;4.47;2.23;;;1.90;99.90;;;;;;4933814;29;20867;-71
2021/12/10 00:22:22;;;;;;;5.30;2.87;;;1.80;99.90;;;;;;4933913;29;20453;-71
2021/12/10 00:24:50;;;;;;;8.10;3.50;;;1.80;99.90;;;;;;4933815;29;20484;-71
2021/12/10 00:27:26;;;;;;;5.23;2.70;;;1.80;99.90;;;;;;4933737;29;20493;-71
2021/12/10 00:30:02;;;;;;;4.67;2.80;;;1.80;99.90;;;;;;4933885;29;20433;-71
2021/12/10 00:32:33;;;;;;;6.33;2.90;;;1.80;99.90;;;;;;4923150;29;20472;-71
2021/12/10 00:35:03;;;;;;;6.33;3.27;;;1.70;99.90;;;;;;4933581;29;20429;-71
2021/12/10 00:37:28;;;;;;;3.37;2.90;;;1.70;99.90;;;;;;4933598;29;20443;-71
2021/12/10 00:39:58;;;;;;;3.40;2.87;;;1.70;99.90;;;;;;4933715;29;20441;-71
2021/12/10 00:42:28;;;;;;;3.40;2.30;;;1.70;99.90;;;;;;4913617;29;20186;-71
2021/12/10 00:44:55;;;;;;;4.63;3.50;;;1.70;99.90;;;;;;4926543;29;20502;-70
2021/12/10 00:47:20;;;;;;;4.73;2.90;;;1.70;99.90;;;;;;4933803;29;20456;-71
2021/12/10 00:49:46;;;;;;;4.33;2.30;;;1.70;99.90;;;;;;4933452;29;20429;-71
2021/12/10 00:52:13;;;;;;;4.27;2.77;;;1.70;99.90;;;;;;4933859;29;20541;-71
2021/12/10 00:54:40;;;;;;;4.80;3.10;;;1.60;99.90;;;;;;4933936;29;20178;-71
2021/12/10 00:57:08;;;;;;;5.73;3.10;;;1.60;99.90;;;;;;4933468;29;20441;-71
2021/12/10 00:59:35;;;;;;;5.00;2.90;;;1.60;99.90;;;;;;4933581;29;20433;-71
2021/12/10 01:02:01;;;;;;;7.07;2.93;;;1.60;99.90;;;;;;4933529;29;20546;-71
2021/12/10 01:04:32;;;;;;;3.63;2.63;;;1.60;99.90;;;;;;4933758;29;20514;-71
2021/12/10 01:07:00;;;;;;;2.67;2.33;;;1.60;99.90;;;;;;4933538;29;20444;-71
2021/12/10 01:09:30;;;;;;;6.63;3.30;;;1.60;99.90;;;;;;4933657;29;20452;-70
2021/12/10 01:12:06;;;;;;;6.50;2.77;;;1.50;99.90;;;;;;4935514;29;20441;-71
2021/12/10 01:14:54;;;;;;;5.83;3.20;;;1.50;99.90;;;;;;4936869;29;20994;-71
2021/12/10 01:25:53;;;;;;;8.63;3.10;;;1.50;99.90;;;;;;4936741;29;20507;-71
2021/12/10 01:28:19;;;;;;;20.70;3.50;;;1.40;99.90;;;;;;4919184;29;20457;-71
2021/12/10 01:30:45;;;;;;;3.13;2.00;;;1.40;99.90;;;;;;4936727;29;20997;-71
2021/12/10 01:33:16;;;;;;;8.03;5.13;;;1.30;99.90;;;;;;4936576;29;20433;-71
2021/12/10 01:35:48;;;;;;;3.60;2.20;;;1.40;99.90;;;;;;4936454;29;20181;-71
2021/12/10 01:38:15;;;;;;;4.13;2.73;;;1.30;99.90;;;;;;4936359;29;20445;-71
2021/12/10 01:40:46;;;;;;;3.33;2.30;;;1.30;99.90;;;;;;4936364;29;20548;-71
2021/12/10 01:43:22;;;;;;;3.73;2.07;;;1.30;99.90;;;;;;4936401;29;20588;-71
2021/12/10 01:45:53;;;;;;;8.90;2.77;;;1.20;99.90;;;;;;4936084;29;20444;-70
2021/12/10 01:48:31;;;;;;;6.03;2.60;;;1.20;99.90;;;;;;4936143;29;20449;-71
2021/12/10 01:50:59;;;;;;;5.53;2.30;;;1.20;99.90;;;;;;4936027;29;20503;-71
2021/12/10 01:53:30;;;;;;;3.10;2.27;;;1.20;99.90;;;;;;4936679;29;20748;-71
2021/12/10 01:56:01;;;;;;;3.03;2.20;;;1.20;99.90;;;;;;4935990;29;20433;-70
2021/12/10 01:58:29;;;;;;;3.90;1.90;;;1.20;99.90;;;;;;4936246;29;20437;-71
2021/12/10 02:01:07;;;;;;;6.23;2.70;;;1.20;99.90;;;;;;4936076;29;20464;-71
2021/12/10 02:03:34;;;;;;;2.90;2.70;;;1.20;99.90;;;;;;4935937;29;20445;-71
2021/12/10 02:06:00;;;;;;;6.83;3.43;;;1.20;99.90;;;;;;4936039;29;20493;-70
2021/12/10 02:08:26;;;;;;;2.40;1.80;;;1.20;99.90;;;;;;4935886;29;20740;-71
2021/12/10 02:10:52;;;;;;;2.63;2.10;;;1.20;99.90;;;;;;4935607;29;20197;-71
2021/12/10 02:13:17;;;;;;;5.73;2.50;;;1.20;99.90;;;;;;4936357;29;20433;-71
2021/12/10 02:15:43;;;;;;;6.33;1.90;;;1.20;99.90;;;;;;4935410;29;20265;-71
2021/12/10 02:18:12;;;;;;;2.90;2.67;;;1.20;99.90;;;;;;4935583;29;20245;-71
2021/12/10 02:21:01;;;;;;;3.93;2.37;;;1.20;99.90;;;;;;4935517;29;20202;-71
2021/12/10 02:23:33;;;;;;;4.80;2.30;;;1.20;99.90;;;;;;4935590;29;20469;-71
2021/12/10 02:26:01;;;;;;;3.33;2.33;;;1.20;99.90;;;;;;4932755;29;20892;-71
2021/12/10 02:28:27;;;;;;;5.03;2.00;;;1.10;99.90;;;;;;4935409;29;20491;-71
2021/12/10 02:30:54;;;;;;;9.77;4.00;;;1.00;99.90;;;;;;4935362;29;20464;-71
2021/12/10 02:33:20;;;;;;;3.93;2.00;;;1.00;99.90;;;;;;4935525;29;20439;-71
2021/12/10 02:35:46;;;;;;;7.60;2.30;;;1.00;99.90;;;;;;4935056;29;20445;-71
2021/12/10 02:38:11;;;;;;;4.30;1.77;;;1.00;99.90;;;;;;4935698;29;20452;-71
2021/12/10 02:40:37;;;;;;;3.20;2.83;;;1.00;99.90;;;;;;4935249;29;20208;-71
2021/12/10 02:43:08;;;;;;;12.47;2.80;;;1.00;99.90;;;;;;4914670;29;20190;-71
2021/12/10 02:45:34;;;;;;;4.00;2.60;;;1.00;99.90;;;;;;4932673;29;20442;-71
2021/12/10 02:48:00;;;;;;;6.03;2.50;;;1.00;99.90;;;;;;4935849;29;20453;-71
2021/12/10 02:50:28;;;;;;;11.90;2.33;;;1.00;99.90;;;;;;4934878;29;20489;-71
2021/12/10 02:52:54;;;;;;;5.73;2.03;;;1.00;99.90;;;;;;4934711;29;20667;-71
2021/12/10 02:55:22;;;;;;;6.03;2.20;;;1.00;99.90;;;;;;4934668;29;20500;-71
2021/12/10 02:57:54;;;;;;;3.77;2.63;;;1.00;99.90;;;;;;4935354;29;20532;-71
2021/12/10 03:00:27;;;;;;;5.03;3.00;;;1.00;99.90;;;;;;4934353;29;20468;-71
2021/12/10 03:02:53;;;;;;;5.80;1.83;;;1.00;99.90;;;;;;4935291;29;20469;-71
2021/12/10 03:05:19;;;;;;;4.20;2.60;;;0.90;99.90;;;;;;4934497;29;20520;-71
2021/12/10 03:07:45;;;;;;;2.40;1.80;;;0.90;99.90;;;;;;4934822;29;20568;-71
2021/12/10 03:10:17;;;;;;;2.57;2.27;;;0.90;99.90;;;;;;4934730;29;20566;-71
2021/12/10 03:12:43;;;;;;;6.77;2.27;;;0.80;99.90;;;;;;4935198;29;20785;-71
2021/12/10 03:15:10;;;;;;;4.03;2.30;;;0.80;99.90;;;;;;4934702;29;20429;-71
2021/12/10 03:17:36;;;;;;;2.97;2.20;;;0.80;99.90;;;;;;4934718;29;20445;-71
2021/12/10 03:20:07;;;;;;;5.33;2.27;;;0.80;99.90;;;;;;4934762;29;20441;-71
2021/12/10 03:22:33;;;;;;;5.43;2.97;;;0.80;99.90;;;;;;4934563;29;20432;-71
2021/12/10 03:25:00;;;;;;;3.80;2.63;;;0.80;99.90;;;;;;4934335;29;20441;-71
2021/12/10 03:27:25;;;;;;;9.40;2.27;;;0.80;99.90;;;;;;4934540;29;20492;-71
2021/12/10 03:29:52;;;;;;;7.03;2.60;;;0.80;99.90;;;;;;4934267;29;20875;-71
2021/12/10 03:32:22;;;;;;;3.67;2.80;;;0.80;99.90;;;;;;4934590;29;20582;-71
2021/12/10 03:34:48;;;;;;;9.93;3.40;;;0.80;99.90;;;;;;4933942;29;20433;-71
2021/12/10 03:37:17;;;;;;;4.87;2.97;;;0.80;99.90;;;;;;4933908;29;20858;-71
2021/12/10 03:39:45;;;;;;;4.00;3.10;;;0.80;99.90;;;;;;4933758;29;20485;-71
2021/12/10 03:42:11;;;;;;;4.20;3.20;;;0.80;99.90;;;;;;4934206;29;20464;-71
2021/12/10 03:44:37;;;;;;;3.70;2.80;;;0.80;99.90;;;;;;4936448;29;20943;-71
2021/12/10 03:47:05;;;;;;;6.47;3.20;;;0.80;99.90;;;;;;4934311;29;20441;-71
2021/12/10 03:49:31;;;;;;;7.00;3.33;;;0.80;99.90;;;;;;4934090;29;20489;-71
2021/12/10 03:51:57;;;;;;;4.67;3.47;;;0.80;99.90;;;;;;4934581;29;20950;-71
2021/12/10 03:54:23;;;;;;;4.80;4.20;;;0.80;99.90;;;;;;4934061;29;20188;-71
2021/12/10 03:56:49;;;;;;;5.53;3.37;;;0.70;99.90;;;;;;4917047;29;20536;-71
2021/12/10 03:59:17;;;;;;;9.70;5.73;;;0.70;99.90;;;;;;4934698;29;20429;-71
2021/12/10 04:01:46;;;;;;;6.47;3.80;;;0.60;99.90;;;;;;4914111;29;20850;-71
2021/12/10 04:04:20;;;;;;;4.60;4.17;;;0.60;99.90;;;;;;4931221;29;20449;-71
2021/12/10 04:06:46;;;;;;;4.13;3.73;;;0.60;99.90;;;;;;4934031;29;20477;-71
2021/12/10 04:09:13;;;;;;;6.57;3.40;;;0.60;99.90;;;;;;4934692;29;20476;-71
2021/12/10 04:11:39;;;;;;;5.53;3.40;;;0.60;99.90;;;;;;4907979;29;20991;-71
2021/12/10 04:14:05;;;;;;;6.97;3.07;;;0.60;99.90;;;;;;4928308;29;20472;-71
2021/12/10 04:16:32;;;;;;;6.10;4.57;;;0.50;99.90;;;;;;4933677;29;20441;-71
2021/12/10 04:18:59;;;;;;;4.50;3.30;;;0.50;99.90;;;;;;4934258;29;20449;-71
2021/12/10 04:21:26;;;;;;;6.30;4.67;;;0.50;99.90;;;;;;4936708;29;20983;-71
2021/12/10 04:23:52;;;;;;;6.80;3.80;;;0.50;99.90;;;;;;4947990;29;20489;-71
2021/12/10 04:26:20;;;;;;;4.63;3.50;;;0.50;99.90;;;;;;4948703;29;20933;-71
2021/12/10 04:28:47;;;;;;;3.73;3.30;;;0.40;99.90;;;;;;4939399;29;20216;-71
2021/12/10 04:31:13;;;;;;;6.40;3.77;;;0.50;99.90;;;;;;4941725;29;20464;-71
2021/12/10 04:33:39;;;;;;;6.80;4.90;;;0.50;99.90;;;;;;4944640;29;20445;-71
2021/12/10 04:36:05;;;;;;;4.73;3.10;;;0.50;99.90;;;;;;4941048;29;20952;-71
2021/12/10 04:38:33;;;;;;;6.43;4.37;;;0.50;99.90;;;;;;4945478;29;20598;-71
2021/12/10 04:41:03;;;;;;;3.20;2.87;;;0.50;99.90;;;;;;4939206;29;20457;-71
2021/12/10 04:43:31;;;;;;;4.30;3.50;;;0.50;99.90;;;;;;4928466;29;20443;-71
2021/12/10 04:45:58;;;;;;;7.20;3.57;;;0.40;99.90;;;;;;4939615;29;20441;-71
2021/12/10 04:48:25;;;;;;;4.90;3.43;;;0.40;99.90;;;;;;4936591;29;20520;-71
2021/12/10 04:50:51;;;;;;;5.80;3.80;;;0.40;99.90;;;;;;4936766;29;20536;-71
2021/12/10 04:53:17;;;;;;;6.13;3.67;;;0.40;99.90;;;;;;4937434;29;20441;-71
2021/12/10 04:55:44;;;;;;;5.07;3.50;;;0.30;99.90;;;;;;4937040;29;20433;-71
2021/12/10 04:58:10;;;;;;;6.50;5.20;;;0.30;99.90;;;;;;4937632;29;20217;-71
2021/12/10 05:00:40;;;;;;;5.50;3.90;;;0.30;99.90;;;;;;4937176;29;20473;-71
2021/12/10 05:03:08;;;;;;;7.43;4.40;;;0.20;99.90;;;;;;4937503;29;20576;-70
2021/12/10 05:05:35;;;;;;;6.80;4.10;;;0.20;99.90;;;;;;4936857;29;20468;-71
2021/12/10 05:08:01;;;;;;;5.10;4.60;;;0.20;99.90;;;;;;4937325;29;20461;-71
2021/12/10 05:10:26;;;;;;;7.53;4.60;;;0.30;99.90;;;;;;4936533;29;20570;-71
2021/12/10 05:12:52;;;;;;;6.50;3.97;;;0.30;99.90;;;;;;4936587;29;20178;-71
2021/12/10 05:15:23;;;;;;;4.77;4.03;;;0.30;99.90;;;;;;4936588;29;20209;-71
2021/12/10 05:17:50;;;;;;;6.93;4.50;;;0.20;99.90;;;;;;4937260;29;20577;-71
2021/12/10 05:20:21;;;;;;;9.43;5.50;;;0.20;99.90;;;;;;4936936;29;20989;-71
2021/12/10 05:22:48;;;;;;;5.87;3.80;;;0.20;99.90;;;;;;4936715;29;20971;-71
2021/12/10 05:25:15;;;;;;;9.23;4.60;;;0.10;99.90;;;;;;4936453;29;20881;-71
2021/12/10 05:27:43;;;;;;;7.90;4.57;;;0.10;99.90;;;;;;4936601;29;21137;-71
2021/12/10 05:30:11;;;;;;;5.53;4.67;;;0.10;99.90;;;;;;4936709;29;20433;-71
2021/12/10 05:32:37;;;;;;;11.53;5.77;;;0.10;99.90;;;;;;4936781;29;20816;-71
2021/12/10 05:35:04;;;;;;;6.17;4.90;;;0.10;99.90;;;;;;4936510;29;20437;-71
2021/12/10 05:37:30;;;;;;;7.67;5.17;;;0.10;99.90;;;;;;4935975;29;20194;-71
2021/12/10 05:39:56;;;;;;;7.77;5.10;;;0.10;99.90;;;;;;4936730;29;20584;-71
2021/12/10 05:42:21;;;;;;;8.63;6.47;;;0.00;99.90;;;;;;4936383;29;20193;-71
2021/12/10 05:44:47;;;;;;;9.80;6.30;;;0.00;99.90;;;;;;4936227;29;20449;-71
2021/12/10 05:47:13;;;;;;;7.20;5.77;;;0.00;99.90;;;;;;4935794;29;20616;-71
2021/12/10 05:49:39;;;;;;;6.20;5.60;;;0.00;99.90;;;;;;4936161;29;20435;-71
2021/12/10 05:52:06;;;;;;;5.80;4.67;;;0.00;99.90;;;;;;4936190;29;20467;-71
2021/12/10 05:54:33;;;;;;;6.10;5.03;;;0.10;99.90;;;;;;4935777;29;20472;-71
2021/12/10 05:56:59;;;;;;;7.80;5.93;;;0.10;99.90;;;;;;4935563;29;20497;-71
2021/12/10 05:59:25;;;;;;;7.93;5.47;;;0.10;99.90;;;;;;4936002;29;20445;-71
2021/12/10 06:01:50;;;;;;;11.27;6.93;;;0.10;99.90;;;;;;4935824;29;20507;-71
2021/12/10 06:04:22;;;;;;;12.33;6.17;;;0.10;99.90;;;;;;4936327;29;20228;-71
2021/12/10 06:06:48;;;;;;;6.80;5.93;;;0.10;99.90;;;;;;4935599;29;20252;-71
2021/12/10 06:09:13;;;;;;;11.77;7.00;;;0.10;99.90;;;;;;4935682;29;20974;-71
2021/12/10 06:11:39;;;;;;;9.77;6.87;;;0.10;99.90;;;;;;4935445;29;20201;-71
2021/12/10 06:14:06;;;;;;;11.20;7.10;;;-0.10;99.90;;;;;;4935778;29;20181;-71
2021/12/10 06:16:32;;;;;;;12.80;6.23;;;-0.20;99.90;;;;;;4935361;29;20181;-71
2021/12/10 06:18:58;;;;;;;13.47;7.57;;;-0.10;99.90;;;;;;4935734;29;20441;-71
2021/12/10 06:21:23;;;;;;;11.07;6.90;;;0.00;99.90;;;;;;4935623;29;20213;-71
2021/12/10 06:23:49;;;;;;;9.73;7.37;;;0.10;99.90;;;;;;4935369;29;20217;-71
2021/12/10 06:26:16;;;;;;;8.13;6.67;;;0.10;99.90;;;;;;4935057;29;20288;-71
2021/12/10 06:28:44;;;;;;;10.03;6.37;;;0.10;99.90;;;;;;4935823;29;20213;-71
2021/12/10 06:31:11;;;;;;;8.70;5.53;;;0.20;99.90;;;;;;4935562;29;20461;-71
2021/12/10 06:33:36;;;;;;;9.40;6.97;;;0.20;99.90;;;;;;4935311;29;20513;-71
2021/12/10 06:36:04;;;;;;;8.37;6.23;;;0.30;99.90;;;;;;4934909;29;20862;-71
2021/12/10 06:38:29;;;;;;;12.17;7.00;;;0.30;99.90;;;;;;4934814;29;20174;-71
2021/12/10 06:40:55;;;;;;;9.20;6.40;;;0.30;99.90;;;;;;4935257;29;20453;-71
2021/12/10 06:43:22;;;;;;;9.07;7.07;;;0.30;99.90;;;;;;4935371;29;20711;-72
2021/12/10 06:45:51;;;;;;;12.53;7.67;;;0.30;99.90;;;;;;4935068;29;20444;-72
2021/12/10 06:48:17;;;;;;;16.40;6.47;;;0.30;99.90;;;;;;4935173;29;20962;-71
2021/12/10 06:50:49;;;;;;;11.10;8.50;;;0.20;99.90;;;;;;4934582;29;20465;-72
2021/12/10 06:53:19;;;;;;;10.20;7.13;;;0.20;99.90;;;;;;4913764;29;20437;-72
2021/12/10 06:55:44;;;;;;;12.00;7.90;;;0.20;99.90;;;;;;4934889;29;20473;-71
2021/12/10 06:58:10;;;;;;;10.57;6.40;;;0.20;99.90;;;;;;4917886;29;20970;-71
2021/12/10 07:00:44;;;;;;;9.10;7.30;;;0.20;99.90;;;;;;4934752;29;20221;-72
2021/12/10 07:03:13;;;;;;;8.57;7.13;;;0.20;99.90;;;;;;4934924;29;21014;-71
2021/12/10 07:05:39;;;;;;;15.40;8.17;;;0.20;99.90;;;;;;4934055;29;20529;-72
2021/12/10 07:08:06;;;;;;;10.17;7.57;;;0.20;99.90;;;;;;4933606;29;20476;-72
2021/12/10 07:10:32;;;;;;;11.30;7.33;;;0.20;99.90;;;;;;4933423;29;20561;-71
2021/12/10 07:12:58;;;;;;;9.13;7.30;;;0.20;99.90;;;;;;4935164;29;20532;-71
2021/12/10 07:15:23;;;;;;;11.73;7.50;;;0.20;99.90;;;;;;4933757;29;20448;-71
2021/12/10 07:17:51;;;;;;;13.50;8.67;;;0.20;99.90;;;;;;4933641;29;20445;-70
2021/12/10 07:20:21;;;;;;;12.70;9.00;;;0.30;99.90;;;;;;4930819;29;20209;-69
2021/12/10 07:22:47;;;;;;;16.10;8.53;;;0.20;99.90;;;;;;4922796;29;20456;-69
2021/12/10 07:25:13;;;;;;;9.43;7.30;;;0.30;99.90;;;;;;4902945;29;21102;-69
2021/12/10 07:27:38;;;;;;;11.53;7.33;;;0.30;99.90;;;;;;4927621;29;20213;-72
2021/12/10 07:30:06;;;;;;;24.73;9.00;;;0.40;99.90;;;;;;4934444;29;20813;-70
2021/12/10 07:32:32;;;;;;;14.87;8.00;;;0.40;99.90;;;;;;4933447;29;20177;-69
2021/12/10 07:34:58;;;;;;;13.50;9.00;;;0.50;99.90;;;;;;4932170;29;20439;-72
2021/12/10 07:37:23;;;;;;;17.20;7.87;;;0.50;99.90;;;;;;4934562;29;20273;-73
2021/12/10 07:39:49;;;;;;;14.90;9.23;;;0.60;99.90;;;;;;4929111;29;20438;-71
2021/12/10 07:42:14;;;;;;;12.20;8.40;;;0.70;99.90;;;;;;4930994;29;20280;-69
2021/12/10 07:44:40;;;;;;;11.40;8.30;;;0.70;99.90;;;;;;4930541;29;20659;-70
2021/12/10 07:47:11;;;;;;;23.17;8.73;;;0.80;99.90;;;;;;4934106;29;20229;-70
2021/12/10 07:49:38;;;;;;;11.23;7.23;;;0.80;99.90;;;;;;4933313;29;20236;-69
2021/12/10 07:52:14;;;;;;;19.93;12.97;;;0.80;99.90;;;;;;4934028;29;20481;-71
2021/12/10 07:54:40;;;;;;;11.27;7.80;;;0.80;99.90;;;;;;4930374;29;20425;-71
2021/12/10 07:57:06;;;;;;;13.47;8.10;;;0.70;99.90;;;;;;4933920;29;20443;-71
2021/12/10 07:59:31;;;;;;;12.30;8.83;;;0.80;99.90;;;;;;4934107;29;20520;-71
2021/12/10 08:01:57;;;;;;;12.47;8.77;;;0.80;99.90;;;;;;4934006;29;20698;-70
2021/12/10 08:04:22;;;;;;;11.93;7.17;;;0.90;99.90;;;;;;4930295;29;20178;-71
2021/12/10 08:06:48;;;;;;;14.00;9.57;;;0.90;99.90;;;;;;4935169;29;20178;-71
2021/12/10 08:09:14;;;;;;;14.00;8.23;;;1.00;99.90;;;;;;4934062;29;20205;-71
2021/12/10 08:11:40;;;;;;;10.80;8.53;;;1.10;99.90;;;;;;4933248;29;20209;-71
2021/12/10 08:14:06;;;;;;;16.63;9.30;;;1.20;99.90;;;;;;4932141;29;20325;-71
2021/12/10 08:16:32;;;;;;;21.03;9.33;;;1.30;99.90;;;;;;4933132;29;20444;-71
2021/12/10 08:18:57;;;;;;;13.03;8.77;;;1.30;99.90;;;;;;4933357;29;20464;-72
2021/12/10 08:21:24;;;;;;;14.00;8.97;;;1.40;99.90;;;;;;4936598;29;20279;-71
2021/12/10 08:23:50;;;;;;;11.87;8.43;;;1.40;99.90;;;;;;4937445;29;20181;-71
2021/12/10 08:26:16;;;;;;;14.03;9.50;;;1.50;99.90;;;;;;4913859;29;20438;-71
2021/12/10 08:28:42;;;;;;;11.37;9.10;;;1.60;99.90;;;;;;4922594;29;20468;-71
2021/12/10 08:31:09;;;;;;;12.30;9.47;;;1.80;99.90;;;;;;4937251;29;20980;-70
2021/12/10 08:33:35;;;;;;;13.93;9.40;;;2.00;99.90;;;;;;4937037;29;20177;-71
2021/12/10 08:36:05;;;;;;;14.33;8.90;;;2.20;99.90;;;;;;4936940;29;20452;-71
2021/12/10 08:38:32;;;;;;;9.77;7.60;;;2.40;99.90;;;;;;4937237;29;20862;-71
2021/12/10 08:41:01;;;;;;;9.83;6.70;;;2.60;99.90;;;;;;4937417;29;20452;-70
2021/12/10 08:43:29;;;;;;;9.50;4.87;;;2.70;99.90;;;;;;4931783;29;20450;-71
2021/12/10 08:45:55;;;;;;;11.83;6.03;;;2.70;99.90;;;;;;4931323;29;20492;-70
2021/12/10 08:48:22;;;;;;;5.83;4.53;;;2.70;99.90;;;;;;4937293;29;20821;-69
2021/12/10 08:50:48;;;;;;;9.10;5.90;;;2.60;99.90;;;;;;4935577;29;20449;-70
2021/12/10 08:53:14;;;;;;;9.40;5.70;;;2.60;99.90;;;;;;4935244;29;20951;-70
2021/12/10 08:55:45;;;;;;;8.47;4.80;;;2.60;99.90;;;;;;4928318;29;21121;-70
2021/12/10 08:58:11;;;;;;;5.10;4.10;;;2.60;99.90;;;;;;4931290;29;20464;-70
2021/12/10 09:00:40;;;;;;;10.23;4.20;;;2.60;99.90;;;;;;4931939;29;20487;-70
2021/12/10 09:03:06;;;;;;;5.57;4.60;;;2.50;99.90;;;;;;4928973;29;20457;-70
2021/12/10 09:05:31;;;;;;;7.80;4.73;;;2.40;99.90;;;;;;4931605;29;20793;-70
2021/12/10 09:07:58;;;;;;;6.93;4.50;;;2.40;99.90;;;;;;4929915;29;20206;-70
2021/12/10 09:10:29;;;;;;;7.63;4.30;;;2.40;99.90;;;;;;4931603;29;20576;-70
2021/12/10 09:12:55;;;;;;;4.33;3.93;;;2.30;99.90;;;;;;4931055;29;20515;-70
2021/12/10 09:15:23;;;;;;;6.00;3.90;;;2.20;99.90;;;;;;4931737;29;20524;-70
2021/12/10 09:17:51;;;;;;;4.47;3.97;;;2.20;99.90;;;;;;4932465;29;20492;-70
2021/12/10 09:20:23;;;;;;;3.93;3.07;;;2.30;99.90;;;;;;4931588;29;20555;-70
2021/12/10 09:22:49;;;;;;;3.27;2.73;;;2.30;99.90;;;;;;4931484;29;20853;-70
2021/12/10 09:25:16;;;;;;;5.27;3.27;;;2.30;99.90;;;;;;4931947;29;20814;-70
2021/12/10 09:27:43;;;;;;;5.90;3.30;;;2.30;99.90;;;;;;4928926;29;21140;-67
2021/12/10 09:30:11;;;;;;;7.30;4.67;;;2.30;99.90;;;;;;4931395;29;20448;-66
2021/12/10 09:32:37;;;;;;;5.77;3.87;;;2.30;99.90;;;;;;4930147;29;20493;-66
2021/12/10 09:35:06;;;;;;;4.90;3.07;;;2.30;99.90;;;;;;4931905;29;20962;-66
2021/12/10 09:37:34;;;;;;;7.10;3.80;;;2.30;99.90;;;;;;4932641;29;20177;-66
2021/12/10 09:39:59;;;;;;;4.13;2.80;;;2.40;99.90;;;;;;4931545;29;20447;-66
2021/12/10 09:42:25;;;;;;;8.13;4.13;;;2.50;99.90;;;;;;4933041;29;20773;-66
2021/12/10 09:44:53;;;;;;;4.10;3.07;;;2.60;99.90;;;;;;4932197;29;20185;-67
2021/12/10 09:47:19;;;;;;;4.17;3.77;;;2.70;99.90;;;;;;4901971;29;20282;-66
2021/12/10 09:49:52;;;;;;;3.43;2.73;;;2.80;99.90;;;;;;4932305;29;20524;-66
2021/12/10 09:52:21;;;;;;;4.20;2.73;;;3.00;99.90;;;;;;4932479;29;20185;-66
2021/12/10 09:54:47;;;;;;;2.90;2.60;;;3.10;99.90;;;;;;4931521;29;20442;-66
2021/12/10 09:57:36;;;;;;;6.23;3.63;;;3.30;99.90;;;;;;4932319;29;20476;-66
2021/12/10 10:00:14;;;;;;;4.00;2.93;;;3.30;99.90;;;;;;4931841;29;20488;-66
2021/12/10 10:02:41;;;;;;;8.80;6.67;;;3.30;99.90;;;;;;4932605;29;20437;-66
2021/12/10 10:05:07;;;;;;;11.33;4.00;;;3.20;99.90;;;;;;4932152;29;20445;-67
2021/12/10 10:07:33;;;;;;;4.27;2.53;;;3.30;99.90;;;;;;4933231;29;20472;-66
2021/12/10 10:10:13;;;;;;;5.10;2.97;;;3.30;99.90;;;;;;4932132;29;20449;-65
2021/12/10 10:12:44;;;;;;;4.23;2.60;;;3.30;99.90;;;;;;4931538;29;20270;-65
2021/12/10 10:15:14;;;;;;;2.77;2.27;;;3.40;99.90;;;;;;4931963;29;21014;-66
2021/12/10 10:17:40;;;;;;;2.80;2.23;;;3.30;99.90;;;;;;4932133;29;20449;-65
2021/12/10 10:20:09;;;;;;;2.73;2.00;;;3.30;99.90;;;;;;4932271;29;20444;-65
2021/12/10 10:22:35;;;;;;;3.50;2.23;;;3.20;99.90;;;;;;4931334;29;20618;-65
2021/12/10 10:25:01;;;;;;;3.07;2.40;;;3.20;99.90;;;;;;4931940;29;20477;-67
2021/12/10 10:27:31;;;;;;;2.60;2.33;;;3.20;99.90;;;;;;4931257;29;20494;-65
2021/12/10 10:30:10;;;;;;;4.33;2.57;;;3.20;99.90;;;;;;4931713;29;20441;-66
2021/12/10 10:32:36;;;;;;;9.50;6.47;;;3.20;99.90;;;;;;4914315;29;20806;-65
2021/12/10 10:35:09;;;;;;;3.67;2.60;;;3.20;99.90;;;;;;4931847;29;20429;-66
2021/12/10 10:37:35;;;;;;;4.73;2.33;;;3.20;99.90;;;;;;4922656;29;20181;-65
2021/12/10 10:40:06;;;;;;;2.97;2.67;;;3.30;99.90;;;;;;4932058;29;20448;-67
2021/12/10 10:42:32;;;;;;;3.43;2.30;;;3.30;99.90;;;;;;4931655;29;20441;-65
2021/12/10 10:45:04;;;;;;;2.67;2.47;;;3.40;99.90;;;;;;4931450;29;20448;-66
2021/12/10 10:47:30;;;;;;;3.50;2.40;;;3.40;99.90;;;;;;4931725;29;20499;-66
2021/12/10 10:50:00;;;;;;;5.27;3.00;;;3.40;99.90;;;;;;4931905;29;20861;-65
2021/12/10 10:52:29;;;;;;;2.10;1.90;;;3.50;99.90;;;;;;4932352;29;20183;-65
2021/12/10 10:55:19;;;;;;;3.00;2.17;;;3.50;99.90;;;;;;4931642;29;20955;-66
2021/12/10 10:57:59;;;;;;;3.60;1.93;;;3.60;99.90;;;;;;4921923;29;20490;-66
2021/12/10 11:00:52;;;;;;;2.73;1.70;;;3.60;99.90;;;;;;4931631;29;20571;-66
2021/12/10 11:03:24;;;;;;;3.47;2.50;;;3.60;99.90;;;;;;4931764;29;20986;-65
2021/12/10 11:05:57;;;;;;;6.20;3.70;;;3.70;99.90;;;;;;4930959;29;20439;-66
2021/12/10 11:08:36;;;;;;;2.40;2.20;;;3.70;99.90;;;;;;4931491;29;20457;-67
2021/12/10 11:11:15;;;;;;;7.33;1.90;;;3.60;99.90;;;;;;4923184;29;20457;-67
2021/12/10 11:13:58;;;;;;;3.70;2.03;;;3.50;99.90;;;;;;4931666;29;20488;-67
2021/12/10 11:16:27;;;;;;;3.93;2.30;;;3.50;99.90;;;;;;4931078;29;20978;-67
2021/12/10 11:19:03;;;;;;;3.50;2.30;;;3.40;99.90;;;;;;4931340;29;20758;-68
2021/12/10 11:21:46;;;;;;;1.83;1.73;;;3.40;99.90;;;;;;4931288;29;20472;-67
2021/12/10 11:24:19;;;;;;;2.83;1.13;;;3.40;99.90;;;;;;4931577;29;20926;-67
2021/12/10 11:26:47;;;;;;;1.20;0.80;;;3.30;99.90;;;;;;4930924;29;20600;-67
2021/12/10 11:29:51;;;;;;;1.63;1.53;;;3.30;99.90;;;;;;4931535;29;20465;-68
2021/12/10 11:32:37;;;;;;;1.33;1.23;;;3.30;99.90;;;;;;4925870;29;20535;-68
2021/12/10 11:35:14;;;;;;;2.10;0.90;;;3.40;99.90;;;;;;4919665;29;20446;-67
2021/12/10 11:37:51;;;;;;;2.40;1.17;;;3.30;99.90;;;;;;4931842;29;20440;-65
2021/12/10 11:40:24;;;;;;;3.90;1.53;;;3.00;99.90;;;;;;4931055;29;20456;-65
2021/12/10 11:42:56;;;;;;;1.63;1.10;;;2.90;99.90;;;;;;4930361;29;20560;-65
2021/12/10 11:45:32;;;;;;;3.07;1.30;;;2.70;99.90;;;;;;4930823;29;20441;-65
2021/12/10 11:48:10;;;;;;;6.73;1.80;;;2.40;99.90;;;;;;4931152;29;20835;-67
2021/12/10 11:50:41;;;;;;;1.57;1.20;;;2.30;99.90;;;;;;4930373;29;20527;-67
2021/12/10 11:53:11;;;;;;;1.60;1.27;;;2.10;99.90;;;;;;4930719;29;21010;-65
2021/12/10 11:55:37;;;;;;;1.67;1.30;;;1.80;99.90;;;;;;4930644;29;20434;-67
2021/12/10 11:58:13;;;;;;;1.33;1.23;;;1.70;99.90;;;;;;4931468;29;20440;-68
2021/12/10 12:00:40;;;;;;;2.93;1.53;;;1.60;99.90;;;;;;4930663;29;20989;-68
2021/12/10 12:03:07;;;;;;;3.50;2.30;;;1.70;99.90;;;;;;4930753;29;20512;-68
2021/12/10 12:05:40;;;;;;;4.63;1.30;;;1.90;99.90;;;;;;4930190;29;20468;-69
2021/12/10 12:08:12;;;;;;;3.00;2.17;;;2.00;99.90;;;;;;4930024;29;20457;-68
2021/12/10 12:10:51;;;;;;;2.40;1.60;;;1.90;99.90;;;;;;4930307;29;20457;-68
2021/12/10 12:13:50;;;;;;;1.93;1.57;;;1.80;99.90;;;;;;4930285;29;20897;-68
2021/12/10 12:16:16;;;;;;;2.50;1.50;;;1.80;99.90;;;;;;4926354;29;20448;-68
2021/12/10 12:18:46;;;;;;;3.40;1.90;;;1.70;99.90;;;;;;4923296;29;20488;-68
2021/12/10 12:27:12;;;;;;;2.60;2.40;;;1.70;99.90;;;;;;4930521;29;21047;-68
2021/12/10 12:29:58;;;;;;;3.17;2.50;;;1.60;99.90;;;;;;4930073;29;20472;-68
2021/12/10 12:32:32;;;;;;;2.57;2.23;;;1.70;99.90;;;;;;4929815;29;20441;-67
2021/12/10 12:35:16;;;;;;;3.50;2.30;;;1.70;99.90;;;;;;4930327;29;20481;-68
2021/12/10 12:37:41;;;;;;;4.10;2.00;;;1.80;99.90;;;;;;4930426;29;20521;-68
2021/12/10 12:40:09;;;;;;;2.33;2.13;;;1.80;99.90;;;;;;4930040;29;20607;-68
2021/12/10 12:42:46;;;;;;;3.80;1.87;;;1.70;99.90;;;;;;4929648;29;20182;-67
2021/12/10 12:45:19;;;;;;;3.03;2.50;;;1.70;99.90;;;;;;4929791;29;20448;-67
2021/12/10 12:47:48;;;;;;;12.10;3.37;;;1.60;99.90;;;;;;4930113;29;20500;-67
2021/12/10 12:50:18;;;;;;;2.47;2.27;;;1.70;99.90;;;;;;4930098;29;20475;-68
2021/12/10 12:52:49;;;;;;;7.43;3.97;;;1.80;99.90;;;;;;4930642;29;20437;-67
2021/12/10 12:55:32;;;;;;;2.87;2.40;;;1.80;99.90;;;;;;4926990;29;20448;-68
2021/12/10 12:58:10;;;;;;;3.03;2.73;;;1.90;99.90;;;;;;4926886;29;20818;-67
2021/12/10 13:00:42;;;;;;;8.03;3.50;;;1.80;99.90;;;;;;4929753;29;21050;-67
2021/12/10 13:03:23;;;;;;;4.40;3.53;;;1.90;99.90;;;;;;4930458;29;20457;-68
2021/12/10 13:05:54;;;;;;;3.53;3.00;;;1.80;99.90;;;;;;4929369;29;20888;-70
2021/12/10 13:08:22;;;;;;;14.37;3.50;;;1.90;99.90;;;;;;4933082;29;20480;-67
2021/12/10 13:11:09;;;;;;;3.50;2.77;;;2.10;99.90;;;;;;4933443;29;20457;-67
2021/12/10 13:13:51;;;;;;;5.00;3.23;;;2.20;99.90;;;;;;4933092;29;20445;-67
2021/12/10 13:16:45;;;;;;;3.00;2.70;;;2.20;99.90;;;;;;4933199;29;20437;-66
2021/12/10 13:19:16;;;;;;;4.67;4.17;;;2.10;99.90;;;;;;4924163;29;20452;-67
2021/12/10 13:21:45;;;;;;;4.07;2.40;;;2.20;99.90;;;;;;4933502;29;20461;-67